Time;durP1;ratioP1;P1;durP2;ratioP2;P2;SDS_P1;SDS_P2;PMS_P1;PMS_P2;Temp;Humidity;BMP_temperature;BMP_pressure;BME280_temperature;BME280_humidity;BME280_pressure;Samples;Min_cycle;Max_cycle;Signal;HPM_P1;HPM_P2
2023/07/05 00:00:08;;;;;;;14.27;8.75;;;;;;;;;;5034728;28;20059;-59
2023/07/05 00:02:34;;;;;;;12.48;8.38;;;;;;;;;;5034292;28;20124;-59
2023/07/05 00:04:59;;;;;;;16.80;8.73;;;;;;;;;;5053983;28;20062;-60
2023/07/05 00:07:24;;;;;;;15.32;8.98;;;;;;;;;;5057195;28;20028;-60
2023/07/05 00:09:50;;;;;;;14.95;8.82;;;;;;;;;;5046649;28;20280;-60
2023/07/05 00:12:15;;;;;;;13.60;7.70;;;;;;;;;;5035760;28;20040;-61
2023/07/05 00:14:40;;;;;;;13.88;8.13;;;;;;;;;;5033770;28;20164;-60
2023/07/05 00:17:06;;;;;;;12.43;6.97;;;;;;;;;;5035349;28;20029;-60
2023/07/05 00:19:31;;;;;;;11.88;7.30;;;;;;;;;;5046974;28;20055;-60
2023/07/05 00:21:56;;;;;;;11.95;6.68;;;;;;;;;;5031285;28;20026;-60
2023/07/05 00:24:22;;;;;;;9.75;6.18;;;;;;;;;;5031262;28;20041;-60
2023/07/05 00:26:47;;;;;;;11.13;6.30;;;;;;;;;;5039319;28;20044;-60
2023/07/05 00:29:13;;;;;;;9.40;5.53;;;;;;;;;;5034726;28;20030;-60
2023/07/05 00:31:38;;;;;;;10.30;5.50;;;;;;;;;;5040328;28;20362;-60
2023/07/05 00:34:04;;;;;;;8.95;5.30;;;;;;;;;;5048935;28;20029;-60
2023/07/05 00:36:29;;;;;;;10.07;5.07;;;;;;;;;;5044469;28;20041;-61
2023/07/05 00:38:54;;;;;;;8.55;5.07;;;;;;;;;;5040141;28;20268;-61
2023/07/05 00:41:20;;;;;;;7.45;4.40;;;;;;;;;;5047448;28;20041;-61
2023/07/05 00:43:48;;;;;;;7.53;4.63;;;;;;;;;;5039378;28;20029;-61
2023/07/05 00:46:21;;;;;;;7.65;4.15;;;;;;;;;;5050123;28;20033;-61
2023/07/05 00:49:10;;;;;;;7.40;4.65;;;;;;;;;;5048827;28;20103;-60
2023/07/05 00:51:38;;;;;;;9.23;4.05;;;;;;;;;;5050832;28;20474;-59
2023/07/05 00:54:05;;;;;;;9.82;4.20;;;;;;;;;;5048733;28;20027;-59
2023/07/05 00:56:49;;;;;;;8.18;4.43;;;;;;;;;;5032456;28;20025;-61
2023/07/05 00:59:19;;;;;;;7.22;4.22;;;;;;;;;;5048306;28;20492;-60
2023/07/05 01:01:44;;;;;;;6.67;4.33;;;;;;;;;;5032684;28;20045;-60
2023/07/05 01:04:11;;;;;;;9.35;4.72;;;;;;;;;;5049218;28;20505;-60
2023/07/05 01:06:36;;;;;;;8.75;4.68;;;;;;;;;;5049703;28;20067;-60
2023/07/05 01:09:04;;;;;;;8.95;4.95;;;;;;;;;;5031788;28;20084;-61
2023/07/05 01:11:33;;;;;;;8.95;5.00;;;;;;;;;;5035179;28;20030;-60
2023/07/05 01:14:48;;;;;;;8.48;4.75;;;;;;;;;;5031238;28;20045;-62
2023/07/05 01:17:19;;;;;;;8.70;5.03;;;;;;;;;;5036129;28;20045;-61
2023/07/05 01:20:17;;;;;;;8.77;4.93;;;;;;;;;;5048042;28;20090;-61
2023/07/05 01:23:04;;;;;;;8.55;4.57;;;;;;;;;;5046496;28;20040;-61
2023/07/05 01:25:48;;;;;;;8.65;4.68;;;;;;;;;;5031087;28;20113;-60
2023/07/05 01:28:29;;;;;;;8.52;4.57;;;;;;;;;;5043685;28;20052;-61
2023/07/05 01:31:19;;;;;;;7.30;4.50;;;;;;;;;;5050076;28;20043;-61
2023/07/05 01:33:53;;;;;;;6.90;4.50;;;;;;;;;;5051025;28;20060;-61
2023/07/05 01:36:19;;;;;;;8.18;4.38;;;;;;;;;;5074413;28;20412;-61
2023/07/05 01:38:45;;;;;;;7.93;4.88;;;;;;;;;;5046663;28;20056;-62
2023/07/05 01:41:10;;;;;;;8.98;4.80;;;;;;;;;;5034526;28;20072;-61
2023/07/05 01:43:39;;;;;;;7.75;4.50;;;;;;;;;;5035997;28;20079;-60
2023/07/05 01:46:25;;;;;;;7.93;4.53;;;;;;;;;;5048320;28;20033;-60
2023/07/05 01:49:20;;;;;;;8.77;4.60;;;;;;;;;;5050332;28;20041;-61
2023/07/05 01:51:54;;;;;;;8.20;4.70;;;;;;;;;;5050769;28;20080;-61
2023/07/05 01:54:45;;;;;;;8.10;4.97;;;;;;;;;;5033218;28;20441;-61
2023/07/05 01:57:16;;;;;;;9.98;4.85;;;;;;;;;;5038043;28;20546;-62
2023/07/05 02:00:00;;;;;;;10.23;4.93;;;;;;;;;;5032767;28;20029;-62
2023/07/05 02:02:32;;;;;;;7.43;4.63;;;;;;;;;;5045920;28;20033;-62
2023/07/05 02:05:00;;;;;;;8.50;5.00;;;;;;;;;;5048470;28;20095;-62
2023/07/05 02:07:27;;;;;;;8.77;4.72;;;;;;;;;;5070118;28;20033;-62
2023/07/05 02:09:54;;;;;;;7.15;4.72;;;;;;;;;;5044822;28;20052;-61
2023/07/05 02:12:19;;;;;;;8.68;4.80;;;;;;;;;;5039727;28;20036;-61
2023/07/05 02:14:45;;;;;;;7.07;4.60;;;;;;;;;;5032965;28;20033;-61
2023/07/05 02:17:10;;;;;;;8.07;4.57;;;;;;;;;;5052964;28;20036;-61
2023/07/05 02:19:36;;;;;;;6.82;4.55;;;;;;;;;;5058668;28;20128;-61
2023/07/05 02:22:02;;;;;;;8.57;4.43;;;;;;;;;;5043249;28;20029;-60
2023/07/05 02:24:27;;;;;;;8.25;4.40;;;;;;;;;;5035626;28;20079;-61
2023/07/05 02:26:55;;;;;;;6.88;4.07;;;;;;;;;;5035107;28;20033;-61
2023/07/05 02:29:20;;;;;;;8.00;4.35;;;;;;;;;;5033823;28;20451;-60
2023/07/05 02:31:45;;;;;;;7.55;4.20;;;;;;;;;;5032908;28;20112;-60
2023/07/05 02:34:11;;;;;;;6.28;4.07;;;;;;;;;;5044105;28;20037;-60
2023/07/05 02:36:36;;;;;;;7.93;3.88;;;;;;;;;;5038969;28;20073;-60
2023/07/05 02:39:02;;;;;;;5.95;3.63;;;;;;;;;;5062310;28;20028;-61
2023/07/05 02:41:27;;;;;;;6.88;3.78;;;;;;;;;;5040687;28;20371;-61
2023/07/05 02:43:52;;;;;;;7.63;4.05;;;;;;;;;;5033643;28;20390;-61
2023/07/05 02:46:18;;;;;;;5.68;3.60;;;;;;;;;;5051204;28;20044;-62
2023/07/05 02:48:45;;;;;;;5.35;3.45;;;;;;;;;;5056586;28;20045;-62
2023/07/05 02:51:10;;;;;;;9.02;3.42;;;;;;;;;;5048123;28;20036;-61
2023/07/05 02:53:36;;;;;;;7.00;3.33;;;;;;;;;;5033446;28;20033;-60
2023/07/05 02:56:01;;;;;;;3.92;2.72;;;;;;;;;;5034917;28;20074;-60
2023/07/05 02:58:27;;;;;;;5.20;3.17;;;;;;;;;;5052801;28;20025;-60
2023/07/05 03:00:52;;;;;;;6.60;3.08;;;;;;;;;;5030162;28;20474;-60
2023/07/05 03:03:18;;;;;;;4.00;2.92;;;;;;;;;;5045877;28;20067;-60
2023/07/05 03:05:43;;;;;;;4.55;3.10;;;;;;;;;;5038443;28;20482;-60
2023/07/05 03:08:09;;;;;;;4.45;2.90;;;;;;;;;;5043731;28;20473;-60
2023/07/05 03:10:39;;;;;;;6.35;3.15;;;;;;;;;;5035018;28;20434;-59
2023/07/05 03:13:04;;;;;;;5.13;3.45;;;;;;;;;;5034887;28;20244;-60
2023/07/05 03:15:30;;;;;;;7.57;3.53;;;;;;;;;;5038469;28;20476;-59
2023/07/05 03:17:55;;;;;;;5.53;3.35;;;;;;;;;;5071912;28;20020;-60
2023/07/05 03:20:21;;;;;;;6.43;3.55;;;;;;;;;;5062704;28;20044;-60
2023/07/05 03:22:47;;;;;;;6.07;3.53;;;;;;;;;;5033488;28;20429;-61
2023/07/05 03:25:12;;;;;;;4.50;3.22;;;;;;;;;;5032031;28;20040;-61
2023/07/05 03:27:37;;;;;;;6.45;3.78;;;;;;;;;;5035547;28;20030;-61
2023/07/05 03:30:03;;;;;;;7.55;3.40;;;;;;;;;;5039892;28;20032;-61
2023/07/05 03:32:29;;;;;;;5.78;3.30;;;;;;;;;;5049448;28;20040;-61
2023/07/05 03:34:54;;;;;;;8.07;3.58;;;;;;;;;;5048954;28;20689;-60
2023/07/05 03:37:20;;;;;;;8.43;3.80;;;;;;;;;;5060797;28;20040;-61
2023/07/05 03:39:45;;;;;;;6.63;3.95;;;;;;;;;;5063898;28;20040;-61
2023/07/05 03:42:11;;;;;;;3.67;2.50;;;;;;;;;;5070556;28;20045;-61
2023/07/05 03:44:36;;;;;;;6.03;2.80;;;;;;;;;;5039919;28;20120;-60
2023/07/05 03:47:01;;;;;;;5.30;2.97;;;;;;;;;;5051154;28;20036;-61
2023/07/05 03:49:32;;;;;;;2.97;2.30;;;;;;;;;;5051918;28;20039;-61
2023/07/05 03:51:57;;;;;;;3.22;2.20;;;;;;;;;;5051756;28;20091;-61
2023/07/05 03:54:25;;;;;;;5.00;2.28;;;;;;;;;;5052257;28;20033;-61
2023/07/05 03:56:51;;;;;;;4.18;2.55;;;;;;;;;;5050956;28;20441;-61
2023/07/05 03:59:16;;;;;;;3.10;2.08;;;;;;;;;;5050147;28;20052;-61
2023/07/05 04:01:42;;;;;;;3.15;2.05;;;;;;;;;;5032381;28;20034;-61
2023/07/05 04:04:10;;;;;;;2.60;1.80;;;;;;;;;;5031364;28;20030;-61
2023/07/05 04:06:35;;;;;;;3.00;1.65;;;;;;;;;;5032981;28;20037;-62
2023/07/05 04:09:01;;;;;;;2.63;1.70;;;;;;;;;;5051503;28;20091;-61
2023/07/05 04:11:26;;;;;;;2.88;1.63;;;;;;;;;;5051973;28;20108;-62
2023/07/05 04:13:53;;;;;;;4.60;1.90;;;;;;;;;;5053799;28;20428;-61
2023/07/05 04:16:21;;;;;;;3.22;1.80;;;;;;;;;;5053294;28;20367;-61
2023/07/05 04:18:50;;;;;;;4.78;2.00;;;;;;;;;;5051574;28;20033;-62
2023/07/05 04:21:16;;;;;;;6.63;1.80;;;;;;;;;;5049810;28;20032;-61
2023/07/05 04:23:41;;;;;;;3.30;2.20;;;;;;;;;;5031988;28;20044;-60
2023/07/05 04:26:19;;;;;;;4.95;2.10;;;;;;;;;;5030946;28;20095;-60
2023/07/05 04:28:45;;;;;;;5.05;1.80;;;;;;;;;;5032043;28;20040;-60
2023/07/05 04:31:15;;;;;;;6.47;2.50;;;;;;;;;;5031380;28;20030;-60
2023/07/05 04:33:41;;;;;;;3.75;2.10;;;;;;;;;;5032192;28;20141;-59
2023/07/05 04:36:07;;;;;;;3.17;1.83;;;;;;;;;;5031397;28;20069;-60
2023/07/05 04:38:32;;;;;;;3.38;1.80;;;;;;;;;;5032691;28;20029;-60
2023/07/05 04:40:59;;;;;;;7.88;2.20;;;;;;;;;;5031274;28;20091;-60
2023/07/05 04:43:26;;;;;;;4.82;2.38;;;;;;;;;;5030517;28;20045;-59
2023/07/05 04:45:54;;;;;;;4.47;2.35;;;;;;;;;;5030415;28;20061;-60
2023/07/05 04:48:19;;;;;;;5.30;2.30;;;;;;;;;;5031428;28;20029;-60
2023/07/05 04:50:48;;;;;;;5.47;1.92;;;;;;;;;;5032892;28;20041;-60
2023/07/05 04:53:14;;;;;;;5.53;2.05;;;;;;;;;;5031181;28;20035;-61
2023/07/05 04:55:47;;;;;;;2.90;1.73;;;;;;;;;;5031400;28;20033;-60
2023/07/05 04:58:14;;;;;;;5.18;2.03;;;;;;;;;;5031385;28;20030;-60
2023/07/05 05:00:40;;;;;;;3.25;1.77;;;;;;;;;;5031665;28;20033;-60
2023/07/05 05:03:05;;;;;;;6.05;2.30;;;;;;;;;;5034122;28;20056;-60
2023/07/05 05:05:31;;;;;;;3.70;2.08;;;;;;;;;;5037628;28;20068;-60
2023/07/05 05:07:56;;;;;;;4.65;2.30;;;;;;;;;;5049300;28;20025;-60
2023/07/05 05:10:24;;;;;;;6.97;2.00;;;;;;;;;;5058097;28;20054;-60
2023/07/05 05:12:49;;;;;;;4.35;2.30;;;;;;;;;;5059680;28;20112;-61
2023/07/05 05:15:15;;;;;;;5.78;2.40;;;;;;;;;;5060024;28;20068;-61
2023/07/05 05:17:40;;;;;;;3.78;2.30;;;;;;;;;;5055555;28;20071;-60
2023/07/05 05:20:07;;;;;;;4.00;2.08;;;;;;;;;;5054371;28;20028;-60
2023/07/05 05:22:32;;;;;;;4.25;2.10;;;;;;;;;;5054070;28;20025;-60
2023/07/05 05:24:58;;;;;;;4.35;2.40;;;;;;;;;;5043378;28;20037;-61
2023/07/05 05:27:23;;;;;;;3.65;1.98;;;;;;;;;;5054301;28;20021;-60
2023/07/05 05:29:48;;;;;;;4.70;2.22;;;;;;;;;;5054527;28;20033;-61
2023/07/05 05:32:14;;;;;;;4.07;2.33;;;;;;;;;;5053944;28;20119;-60
2023/07/05 05:34:39;;;;;;;5.55;2.47;;;;;;;;;;5054610;28;20381;-60
2023/07/05 05:37:04;;;;;;;3.92;2.08;;;;;;;;;;5053882;28;20049;-60
2023/07/05 05:39:30;;;;;;;3.85;1.88;;;;;;;;;;5050834;28;20059;-61
2023/07/05 05:41:55;;;;;;;5.80;2.22;;;;;;;;;;5052833;28;20056;-61
2023/07/05 05:44:21;;;;;;;4.82;2.40;;;;;;;;;;5054728;28;20481;-61
2023/07/05 05:46:46;;;;;;;3.45;2.10;;;;;;;;;;5054397;28;20033;-61
2023/07/05 05:49:12;;;;;;;4.57;2.42;;;;;;;;;;5053800;28;20111;-61
2023/07/05 05:51:37;;;;;;;5.15;1.83;;;;;;;;;;5054516;28;20033;-61
2023/07/05 05:54:05;;;;;;;3.50;2.25;;;;;;;;;;5052484;28;20048;-61
2023/07/05 05:56:31;;;;;;;4.10;2.17;;;;;;;;;;5040268;28;20032;-61
2023/07/05 05:58:56;;;;;;;3.28;1.92;;;;;;;;;;5033670;28;20087;-60
2023/07/05 06:01:21;;;;;;;4.72;2.65;;;;;;;;;;5036339;28;20057;-61
2023/07/05 06:03:47;;;;;;;3.80;1.95;;;;;;;;;;5040725;28;20045;-61
2023/07/05 06:06:12;;;;;;;5.55;2.60;;;;;;;;;;5048579;28;20024;-60
2023/07/05 06:08:38;;;;;;;4.30;2.08;;;;;;;;;;5054105;28;20465;-60
2023/07/05 06:11:04;;;;;;;5.65;2.65;;;;;;;;;;5053699;28;20044;-60
2023/07/05 06:13:30;;;;;;;6.28;2.35;;;;;;;;;;5054268;28;20522;-61
2023/07/05 06:15:59;;;;;;;6.20;2.15;;;;;;;;;;5053238;28;20021;-61
2023/07/05 06:18:26;;;;;;;4.70;2.55;;;;;;;;;;5054183;28;20045;-60
2023/07/05 06:20:52;;;;;;;4.53;2.40;;;;;;;;;;5052394;28;20043;-60
2023/07/05 06:23:17;;;;;;;9.07;2.70;;;;;;;;;;5036760;28;20370;-60
2023/07/05 06:25:49;;;;;;;4.65;2.45;;;;;;;;;;5033719;28;20029;-60
2023/07/05 06:28:16;;;;;;;3.28;1.83;;;;;;;;;;5031765;28;20359;-60
2023/07/05 06:30:43;;;;;;;3.80;1.88;;;;;;;;;;5034005;28;20489;-60
2023/07/05 06:33:08;;;;;;;3.05;2.10;;;;;;;;;;5046317;28;20112;-60
2023/07/05 06:35:34;;;;;;;4.53;2.50;;;;;;;;;;5053704;28;20153;-60
2023/07/05 06:37:59;;;;;;;5.90;2.20;;;;;;;;;;5052714;28;20458;-61
2023/07/05 06:40:27;;;;;;;4.32;2.15;;;;;;;;;;5054115;28;20033;-61
2023/07/05 06:42:52;;;;;;;6.47;2.60;;;;;;;;;;5053505;28;20077;-60
2023/07/05 06:45:18;;;;;;;7.53;2.05;;;;;;;;;;5053453;28;20025;-60
2023/07/05 06:47:45;;;;;;;4.03;2.10;;;;;;;;;;5051997;28;20037;-60
2023/07/05 06:50:11;;;;;;;4.88;2.53;;;;;;;;;;5046587;28;20071;-60
2023/07/05 06:52:39;;;;;;;3.63;2.20;;;;;;;;;;5053529;28;20028;-60
2023/07/05 06:55:05;;;;;;;7.53;2.63;;;;;;;;;;5052636;28;20461;-61
2023/07/05 06:57:31;;;;;;;5.45;2.50;;;;;;;;;;5053454;28;20074;-60
2023/07/05 06:59:56;;;;;;;5.38;2.20;;;;;;;;;;5052909;28;20435;-62
2023/07/05 07:02:22;;;;;;;6.00;2.20;;;;;;;;;;5050593;28;20036;-61
2023/07/05 07:04:47;;;;;;;3.47;2.05;;;;;;;;;;5046759;28;20033;-60
2023/07/05 07:07:13;;;;;;;4.43;2.00;;;;;;;;;;5049186;28;20069;-61
2023/07/05 07:09:40;;;;;;;4.93;2.40;;;;;;;;;;5033207;28;20052;-60
2023/07/05 07:12:07;;;;;;;4.65;2.30;;;;;;;;;;5032351;28;20461;-60
2023/07/05 07:14:32;;;;;;;3.20;2.03;;;;;;;;;;5032899;28;20037;-62
2023/07/05 07:16:58;;;;;;;5.25;2.20;;;;;;;;;;5039933;28;20039;-62
2023/07/05 07:19:23;;;;;;;4.40;1.70;;;;;;;;;;5052905;28;20052;-61
2023/07/05 07:21:49;;;;;;;3.70;1.80;;;;;;;;;;5052894;28;20029;-61
2023/07/05 07:24:17;;;;;;;4.75;1.70;;;;;;;;;;5051419;28;20055;-61
2023/07/05 07:26:43;;;;;;;2.40;1.58;;;;;;;;;;5052382;28;20485;-61
2023/07/05 07:29:10;;;;;;;7.63;2.00;;;;;;;;;;5051733;28;20025;-60
2023/07/05 07:31:35;;;;;;;3.50;1.70;;;;;;;;;;5049950;28;20083;-61
2023/07/05 07:34:02;;;;;;;3.05;1.50;;;;;;;;;;5051776;28;20029;-62
2023/07/05 07:36:29;;;;;;;5.55;1.95;;;;;;;;;;5052626;28;20032;-61
2023/07/05 07:38:56;;;;;;;6.32;1.90;;;;;;;;;;5052320;28;20033;-61
2023/07/05 07:41:39;;;;;;;8.68;1.98;;;;;;;;;;5051296;28;20132;-61
2023/07/05 07:44:07;;;;;;;4.15;1.70;;;;;;;;;;5051648;28;20029;-61
2023/07/05 07:46:34;;;;;;;5.90;2.00;;;;;;;;;;5050836;28;20057;-62
2023/07/05 07:49:00;;;;;;;4.20;1.80;;;;;;;;;;5032790;28;20038;-60
2023/07/05 07:51:29;;;;;;;3.65;1.73;;;;;;;;;;5032574;28;20042;-61
2023/07/05 07:53:54;;;;;;;4.45;1.60;;;;;;;;;;5040177;28;20037;-61
2023/07/05 07:56:25;;;;;;;3.45;1.60;;;;;;;;;;5032391;28;20307;-60
2023/07/05 07:58:53;;;;;;;3.90;1.90;;;;;;;;;;5032413;28;20048;-60
2023/07/05 08:01:22;;;;;;;6.75;2.50;;;;;;;;;;5031745;28;20039;-60
2023/07/05 08:03:49;;;;;;;2.45;1.50;;;;;;;;;;5035198;28;20033;-61
2023/07/05 08:06:15;;;;;;;2.45;1.55;;;;;;;;;;5031462;28;20029;-60
2023/07/05 08:08:41;;;;;;;3.33;1.70;;;;;;;;;;5031955;28;20033;-61
2023/07/05 08:11:08;;;;;;;3.45;1.90;;;;;;;;;;5031131;28;20050;-60
2023/07/05 08:13:34;;;;;;;3.47;1.50;;;;;;;;;;5032016;28;20037;-61
2023/07/05 08:16:03;;;;;;;4.30;1.98;;;;;;;;;;5031123;28;20040;-61
2023/07/05 08:18:29;;;;;;;3.17;1.67;;;;;;;;;;5031518;28;20474;-60
2023/07/05 08:20:57;;;;;;;3.47;1.55;;;;;;;;;;5034837;28;20041;-60
2023/07/05 08:23:23;;;;;;;4.15;1.80;;;;;;;;;;5046489;28;20074;-60
2023/07/05 08:25:54;;;;;;;3.30;1.60;;;;;;;;;;5051706;28;20024;-60
2023/07/05 08:28:21;;;;;;;7.35;1.90;;;;;;;;;;5051037;28;20689;-60
2023/07/05 08:30:56;;;;;;;3.10;1.58;;;;;;;;;;5051981;28;20117;-60
2023/07/05 08:33:26;;;;;;;2.58;1.48;;;;;;;;;;5051095;28;20100;-60
2023/07/05 08:36:04;;;;;;;3.03;1.55;;;;;;;;;;5051938;28;20064;-62
2023/07/05 08:38:30;;;;;;;6.35;1.65;;;;;;;;;;5052093;28;20029;-61
2023/07/05 08:41:05;;;;;;;4.13;1.60;;;;;;;;;;5055856;28;20048;-60
2023/07/05 08:43:41;;;;;;;2.42;1.48;;;;;;;;;;5055598;28;20124;-61
2023/07/05 08:46:11;;;;;;;3.42;1.73;;;;;;;;;;5054646;28;20499;-61
2023/07/05 08:48:37;;;;;;;3.60;1.58;;;;;;;;;;5055698;28;20028;-61
2023/07/05 08:51:04;;;;;;;3.70;1.70;;;;;;;;;;5054956;28;20047;-61
2023/07/05 08:53:40;;;;;;;2.42;1.52;;;;;;;;;;5043542;28;20029;-60
2023/07/05 08:56:12;;;;;;;2.75;1.48;;;;;;;;;;5034066;28;20041;-61
2023/07/05 08:58:45;;;;;;;5.57;1.75;;;;;;;;;;5035343;28;20029;-61
2023/07/05 09:01:18;;;;;;;7.22;2.03;;;;;;;;;;5037169;28;20461;-61
2023/07/05 09:03:44;;;;;;;5.72;2.35;;;;;;;;;;5035192;28;20059;-61
2023/07/05 09:06:59;;;;;;;3.90;1.80;;;;;;;;;;5034322;28;20026;-62
2023/07/05 09:09:55;;;;;;;2.70;1.73;;;;;;;;;;5051716;28;20083;-61
2023/07/05 09:12:26;;;;;;;3.33;1.55;;;;;;;;;;5054834;28;20068;-60
2023/07/05 09:14:51;;;;;;;7.68;1.70;;;;;;;;;;5055266;28;20029;-60
2023/07/05 09:17:43;;;;;;;5.63;1.88;;;;;;;;;;5054412;28;20029;-60
2023/07/05 09:20:30;;;;;;;4.20;1.73;;;;;;;;;;5038004;28;20052;-61
2023/07/05 09:23:00;;;;;;;6.28;1.85;;;;;;;;;;5035353;28;20060;-60
2023/07/05 09:25:30;;;;;;;5.38;1.70;;;;;;;;;;5033526;28;20221;-61
2023/07/05 09:28:04;;;;;;;4.57;1.95;;;;;;;;;;5035109;28;20120;-61
2023/07/05 09:30:30;;;;;;;5.88;1.70;;;;;;;;;;5034577;28;20036;-60
2023/07/05 09:33:13;;;;;;;3.08;1.80;;;;;;;;;;5035088;28;20367;-60
2023/07/05 09:35:45;;;;;;;4.78;1.83;;;;;;;;;;5038071;28;20175;-62
2023/07/05 09:38:25;;;;;;;3.47;1.80;;;;;;;;;;5044072;28;20397;-61
2023/07/05 09:41:00;;;;;;;7.25;2.03;;;;;;;;;;5054549;28;20035;-61
2023/07/05 09:43:25;;;;;;;5.05;2.33;;;;;;;;;;5053870;28;20091;-62
2023/07/05 09:45:51;;;;;;;4.82;1.80;;;;;;;;;;5059044;28;20041;-62
2023/07/05 09:48:17;;;;;;;9.95;2.38;;;;;;;;;;5057744;28;20029;-61
2023/07/05 09:50:51;;;;;;;6.78;1.95;;;;;;;;;;5047705;28;20090;-61
2023/07/05 09:53:40;;;;;;;4.75;1.60;;;;;;;;;;5053876;28;20048;-61
2023/07/05 09:56:38;;;;;;;5.60;2.00;;;;;;;;;;5054373;28;20115;-62
2023/07/05 09:59:15;;;;;;;2.95;1.70;;;;;;;;;;5054142;28;20036;-61
2023/07/05 10:01:44;;;;;;;5.68;1.90;;;;;;;;;;5050748;28;20422;-61
2023/07/05 10:04:10;;;;;;;5.13;1.50;;;;;;;;;;5053420;28;20033;-62
2023/07/05 10:06:39;;;;;;;6.32;1.83;;;;;;;;;;5054210;28;20066;-61
2023/07/05 10:09:17;;;;;;;5.37;1.80;;;;;;;;;;5054199;28;20033;-61
2023/07/05 10:11:48;;;;;;;4.00;1.90;;;;;;;;;;5054191;28;20029;-60
2023/07/05 10:14:16;;;;;;;3.55;1.90;;;;;;;;;;5053324;28;20112;-60
2023/07/05 10:17:06;;;;;;;5.55;1.73;;;;;;;;;;5047019;28;20044;-61
2023/07/05 10:19:33;;;;;;;6.05;1.70;;;;;;;;;;5052778;28;20123;-61
2023/07/05 10:22:06;;;;;;;4.00;1.80;;;;;;;;;;5054054;28;20102;-61
2023/07/05 10:24:35;;;;;;;2.28;1.60;;;;;;;;;;5035343;28;20390;-61
2023/07/05 10:27:04;;;;;;;3.45;1.55;;;;;;;;;;5053750;28;20035;-61
2023/07/05 10:29:30;;;;;;;4.65;1.67;;;;;;;;;;5052933;28;20469;-61
2023/07/05 10:32:00;;;;;;;4.20;1.90;;;;;;;;;;5052329;28;20047;-63
2023/07/05 10:34:26;;;;;;;2.92;1.60;;;;;;;;;;5050206;28;20029;-61
2023/07/05 10:36:52;;;;;;;8.23;2.30;;;;;;;;;;5052308;28;20099;-61
2023/07/05 10:39:26;;;;;;;4.03;1.75;;;;;;;;;;5052769;28;20053;-60
2023/07/05 10:41:55;;;;;;;7.85;1.92;;;;;;;;;;5053366;28;20512;-60
2023/07/05 10:44:27;;;;;;;4.07;2.00;;;;;;;;;;5052735;28;20060;-61
2023/07/05 10:46:55;;;;;;;7.85;2.25;;;;;;;;;;5050141;28;20495;-60
2023/07/05 10:49:22;;;;;;;6.18;2.03;;;;;;;;;;5052978;28;20471;-60
2023/07/05 10:51:54;;;;;;;5.20;1.83;;;;;;;;;;5053715;28;20027;-60
2023/07/05 10:54:22;;;;;;;4.82;1.63;;;;;;;;;;5052814;28;20028;-61
2023/07/05 10:56:48;;;;;;;4.63;1.73;;;;;;;;;;5053398;28;20060;-60
2023/07/05 10:59:25;;;;;;;5.95;1.92;;;;;;;;;;5051577;28;20052;-61
2023/07/05 11:02:02;;;;;;;4.95;1.70;;;;;;;;;;5046022;28;20033;-61
2023/07/05 11:04:30;;;;;;;4.65;1.60;;;;;;;;;;5051626;28;20477;-61
2023/07/05 11:07:10;;;;;;;4.65;2.00;;;;;;;;;;5053254;28;20036;-60
2023/07/05 11:09:37;;;;;;;3.17;1.70;;;;;;;;;;5051334;28;20079;-61
2023/07/05 11:12:10;;;;;;;5.93;2.00;;;;;;;;;;5051726;28;20365;-61
2023/07/05 11:14:36;;;;;;;7.28;2.00;;;;;;;;;;5052376;28;20501;-61
2023/07/05 11:17:04;;;;;;;5.30;2.10;;;;;;;;;;5043380;28;20043;-61
2023/07/05 11:19:31;;;;;;;6.10;1.90;;;;;;;;;;5048100;28;20052;-62
2023/07/05 11:21:57;;;;;;;2.75;1.45;;;;;;;;;;5052608;28;20532;-61
2023/07/05 11:24:38;;;;;;;5.93;1.83;;;;;;;;;;5051731;28;20116;-62
2023/07/05 11:27:25;;;;;;;3.83;1.77;;;;;;;;;;5052356;28;20496;-61
2023/07/05 11:29:54;;;;;;;5.97;1.80;;;;;;;;;;5052382;28;20039;-61
2023/07/05 11:32:21;;;;;;;4.47;1.90;;;;;;;;;;5050395;28;20029;-62
2023/07/05 11:34:50;;;;;;;6.43;1.80;;;;;;;;;;5035209;28;20033;-59
2023/07/05 11:37:15;;;;;;;5.45;1.80;;;;;;;;;;5031677;28;20123;-61
2023/07/05 11:39:51;;;;;;;4.05;1.67;;;;;;;;;;5038072;28;20056;-60
2023/07/05 11:42:16;;;;;;;15.68;2.38;;;;;;;;;;5034356;28;20103;-61
2023/07/05 11:44:49;;;;;;;3.55;1.52;;;;;;;;;;5032575;28;20042;-60
2023/07/05 11:47:23;;;;;;;7.28;1.70;;;;;;;;;;5046769;28;20107;-63
2023/07/05 11:50:08;;;;;;;3.28;1.83;;;;;;;;;;5045287;28;20399;-62
2023/07/05 11:52:41;;;;;;;4.97;1.70;;;;;;;;;;5051188;28;20162;-61
2023/07/05 11:55:31;;;;;;;3.05;1.52;;;;;;;;;;5052419;28;20736;-62
2023/07/05 11:58:02;;;;;;;3.13;1.70;;;;;;;;;;5046626;28;20029;-61
2023/07/05 12:00:34;;;;;;;6.28;1.90;;;;;;;;;;5051021;28;20037;-60
2023/07/05 12:03:04;;;;;;;2.55;1.50;;;;;;;;;;5052173;28;20032;-61
2023/07/05 12:05:32;;;;;;;2.70;1.38;;;;;;;;;;5049736;28;20060;-61
2023/07/05 12:08:13;;;;;;;2.35;1.40;;;;;;;;;;5051969;28;20041;-60
2023/07/05 12:10:51;;;;;;;3.72;1.55;;;;;;;;;;5051318;28;20033;-61
2023/07/05 12:13:22;;;;;;;4.05;2.03;;;;;;;;;;5046073;28;20039;-62
2023/07/05 12:15:48;;;;;;;4.25;2.00;;;;;;;;;;5051926;28;20025;-61
2023/07/05 12:18:15;;;;;;;5.68;2.00;;;;;;;;;;5050441;28;20039;-63
2023/07/05 12:20:47;;;;;;;4.63;1.80;;;;;;;;;;5051078;28;20064;-60
2023/07/05 12:23:15;;;;;;;4.90;1.70;;;;;;;;;;5051696;28;20082;-60
2023/07/05 12:25:46;;;;;;;9.23;1.77;;;;;;;;;;5051778;28;20029;-60
2023/07/05 12:28:17;;;;;;;4.50;1.80;;;;;;;;;;5038505;28;20033;-60
2023/07/05 12:30:44;;;;;;;5.60;2.00;;;;;;;;;;5030611;28;20029;-61
2023/07/05 12:33:24;;;;;;;5.70;2.00;;;;;;;;;;5031987;28;20476;-62
2023/07/05 12:36:13;;;;;;;5.40;1.83;;;;;;;;;;5030294;28;20037;-61
2023/07/05 12:38:41;;;;;;;3.22;1.67;;;;;;;;;;5031049;28;20034;-61
2023/07/05 12:41:19;;;;;;;4.65;1.65;;;;;;;;;;5031611;28;20064;-61
2023/07/05 12:43:46;;;;;;;5.00;1.65;;;;;;;;;;5038983;28;20040;-61
2023/07/05 12:46:21;;;;;;;2.50;1.40;;;;;;;;;;5051680;28;20029;-62
2023/07/05 12:48:48;;;;;;;2.75;1.35;;;;;;;;;;5050310;28;20029;-61
2023/07/05 12:51:29;;;;;;;4.68;1.73;;;;;;;;;;5051272;28;20040;-61
2023/07/05 12:54:00;;;;;;;7.22;2.15;;;;;;;;;;5051836;28;20025;-61
2023/07/05 12:56:37;;;;;;;6.00;1.65;;;;;;;;;;5048560;28;20343;-61
2023/07/05 12:59:27;;;;;;;8.65;1.80;;;;;;;;;;5031477;28;20138;-61
2023/07/05 13:01:52;;;;;;;10.05;1.98;;;;;;;;;;5027654;28;20125;-61
2023/07/05 13:04:19;;;;;;;7.07;1.75;;;;;;;;;;5031073;28;20112;-62
2023/07/05 13:06:48;;;;;;;5.32;1.70;;;;;;;;;;5031500;28;20042;-61
2023/07/05 13:09:32;;;;;;;6.47;1.80;;;;;;;;;;5031555;28;20029;-61
2023/07/05 13:12:03;;;;;;;5.15;1.60;;;;;;;;;;5031322;28;20041;-61
2023/07/05 13:14:43;;;;;;;3.42;1.80;;;;;;;;;;5030686;28;20113;-61
2023/07/05 13:17:12;;;;;;;5.35;1.75;;;;;;;;;;5035195;28;20032;-62
2023/07/05 13:19:49;;;;;;;6.82;1.60;;;;;;;;;;5048918;28;20025;-61
2023/07/05 13:22:26;;;;;;;5.35;1.73;;;;;;;;;;5050939;28;20409;-61
2023/07/05 13:24:53;;;;;;;3.35;1.65;;;;;;;;;;5055017;28;20469;-61
2023/07/05 13:27:20;;;;;;;6.38;1.70;;;;;;;;;;5053303;28;20378;-62
2023/07/05 13:29:47;;;;;;;5.60;1.65;;;;;;;;;;5054755;28;20036;-61
2023/07/05 13:32:27;;;;;;;3.90;1.67;;;;;;;;;;5055209;28;20111;-62
2023/07/05 13:34:53;;;;;;;5.88;1.73;;;;;;;;;;5052766;28;20079;-62
2023/07/05 13:37:25;;;;;;;3.17;1.80;;;;;;;;;;5054433;28;20044;-62
2023/07/05 13:39:53;;;;;;;3.45;1.50;;;;;;;;;;5053435;28;20037;-62
2023/07/05 13:42:19;;;;;;;4.75;1.50;;;;;;;;;;5054114;28;20053;-62
2023/07/05 13:44:46;;;;;;;4.15;1.58;;;;;;;;;;5054164;28;20358;-61
2023/07/05 13:47:12;;;;;;;8.88;1.98;;;;;;;;;;5049582;28;20397;-61
2023/07/05 13:49:38;;;;;;;3.03;1.70;;;;;;;;;;5047782;28;20072;-61
2023/07/05 13:52:04;;;;;;;3.88;1.60;;;;;;;;;;5034400;28;20061;-61
2023/07/05 13:54:29;;;;;;;4.70;1.90;;;;;;;;;;5033763;28;20042;-61
2023/07/05 13:56:58;;;;;;;3.90;1.60;;;;;;;;;;5036825;28;20040;-61
2023/07/05 13:59:24;;;;;;;2.63;1.70;;;;;;;;;;5050883;28;20028;-62
2023/07/05 14:01:50;;;;;;;3.67;1.92;;;;;;;;;;5034297;28;20029;-61
2023/07/05 14:04:16;;;;;;;4.07;1.70;;;;;;;;;;5034618;28;20029;-61
2023/07/05 14:06:41;;;;;;;5.70;2.03;;;;;;;;;;5033631;28;20029;-61
2023/07/05 14:09:08;;;;;;;5.53;1.73;;;;;;;;;;5034415;28;20064;-62
2023/07/05 14:11:36;;;;;;;7.28;2.20;;;;;;;;;;5033326;28;20025;-61
2023/07/05 14:14:02;;;;;;;5.60;2.03;;;;;;;;;;5038015;28;20024;-61
2023/07/05 14:16:28;;;;;;;4.22;1.75;;;;;;;;;;5036243;28;20096;-61
2023/07/05 14:18:54;;;;;;;4.72;1.73;;;;;;;;;;5034889;28;20051;-61
2023/07/05 14:21:31;;;;;;;5.90;2.40;;;;;;;;;;5037184;28;20120;-61
2023/07/05 14:23:58;;;;;;;7.82;2.45;;;;;;;;;;5069045;28;20037;-61
2023/07/05 14:26:27;;;;;;;5.20;2.15;;;;;;;;;;5068613;28;20389;-62
2023/07/05 14:28:52;;;;;;;5.25;2.35;;;;;;;;;;5053917;28;20040;-61
2023/07/05 14:31:18;;;;;;;5.18;2.40;;;;;;;;;;5053685;28;20032;-61
2023/07/05 14:33:43;;;;;;;5.40;2.20;;;;;;;;;;5052404;28;20032;-61
2023/07/05 14:36:14;;;;;;;5.63;2.38;;;;;;;;;;5053302;28;20530;-61
2023/07/05 14:38:41;;;;;;;4.63;2.30;;;;;;;;;;5058075;28;20369;-61
2023/07/05 14:41:12;;;;;;;7.32;2.30;;;;;;;;;;5063122;28;20117;-61
2023/07/05 14:43:37;;;;;;;;;;;;;;;;;;5052980;28;20541;-61
2023/07/05 14:46:03;;;;;;;7.43;2.35;;;;;;;;;;5068911;28;20011;-61
2023/07/05 14:48:28;;;;;;;4.85;2.28;;;;;;;;;;5051402;28;20025;-61
2023/07/05 14:50:54;;;;;;;8.50;2.15;;;;;;;;;;5053026;28;20531;-61
2023/07/05 14:53:26;;;;;;;3.75;1.83;;;;;;;;;;5053338;28;20036;-61
2023/07/05 14:55:51;;;;;;;6.07;2.05;;;;;;;;;;5051308;28;20041;-62